createdAt,value
2016-11-28T00:00:59.933Z,51.55
2016-11-28T00:01:59.915Z,51.45
2016-11-28T00:02:59.901Z,51.45
2016-11-28T00:03:59.881Z,51.72
2016-11-28T00:04:59.869Z,51.04
2016-11-28T00:05:59.846Z,51.07
2016-11-28T00:06:59.829Z,51.17
2016-11-28T00:07:59.818Z,51.33
2016-11-28T00:08:59.809Z,51.14
2016-11-28T00:09:59.784Z,51.14
2016-11-28T00:10:59.768Z,51.04
2016-11-28T00:11:59.755Z,51.43
2016-11-28T00:12:59.416Z,50.95
2016-11-28T00:13:59.719Z,51.14
2016-11-28T00:14:59.700Z,51.14
2016-11-28T00:15:59.684Z,51.14
2016-11-28T00:16:59.672Z,51.43
2016-11-28T00:17:59.650Z,51.43
2016-11-28T00:18:59.631Z,51.14
2016-11-28T00:19:59.615Z,51.23
2016-11-28T00:20:59.607Z,51.23
2016-11-28T00:21:59.583Z,51.23
2016-11-28T00:22:59.568Z,51.14
2016-11-28T00:23:59.549Z,51.23
2016-11-28T00:24:59.528Z,51.23
2016-11-28T00:25:59.199Z,51.14
2016-11-28T00:26:59.493Z,51.23
2016-11-28T00:27:59.487Z,51.14
2016-11-28T00:28:59.151Z,51.23
2016-11-28T00:29:59.451Z,51.43
2016-11-28T00:30:59.432Z,51.53
2016-11-28T00:31:59.425Z,51.23
2016-11-28T00:32:59.398Z,51.33
2016-11-28T00:33:59.067Z,51.33
2016-11-28T00:34:59.050Z,50.95
2016-11-28T00:35:59.350Z,51.14
2016-11-28T00:36:59.329Z,51.04
2016-11-28T00:37:59.006Z,51.04
2016-11-28T00:38:59.298Z,51.04
2016-11-28T00:39:59.284Z,51.04
2016-11-28T00:40:59.266Z,51.81
2016-11-28T00:41:59.249Z,51.72
2016-11-28T00:42:59.234Z,51.81
2016-11-28T00:43:59.217Z,51.91
2016-11-28T00:44:58.879Z,52.1
2016-11-28T00:45:59.206Z,51.81
2016-11-28T00:46:59.167Z,51.62
2016-11-28T00:47:59.154Z,52
2016-11-28T00:48:58.812Z,51.91
2016-11-28T00:49:58.801Z,51.91
2016-11-28T00:50:59.098Z,51.33
2016-11-28T00:51:59.085Z,49.79
2016-11-28T00:52:59.069Z,51.14
2016-11-28T00:53:58.734Z,51.14
2016-11-28T00:54:59.037Z,51.33
2016-11-28T00:55:59.020Z,51.72
2016-11-28T00:56:59.000Z,51.53
2016-11-28T00:57:58.981Z,52.1
2016-11-28T00:58:58.648Z,52.29
2016-11-28T00:59:58.947Z,52.2
2016-11-28T01:00:58.933Z,51.79
2016-11-28T01:01:58.920Z,52.26
2016-11-28T01:02:58.896Z,52.2
2016-11-28T01:03:58.875Z,52.1
2016-11-28T01:04:58.552Z,51.81
2016-11-28T01:05:58.849Z,51.72
2016-11-28T01:06:58.837Z,51.62
2016-11-28T01:07:58.499Z,51.72
2016-11-28T01:08:58.481Z,51.62
2016-11-28T01:09:58.783Z,52.17
2016-11-28T01:10:58.760Z,52.1
2016-11-28T01:11:58.745Z,52.26
2016-11-28T01:12:58.734Z,52.17
2016-11-28T01:13:58.732Z,53.03
2016-11-28T01:14:58.695Z,52.55
2016-11-28T01:15:58.680Z,52.36
2016-11-28T01:16:58.345Z,52.65
2016-11-28T01:17:58.645Z,52.36
2016-11-28T01:18:58.311Z,52.08
2016-11-28T01:19:58.607Z,52.17
2016-11-28T01:20:58.593Z,52.26
2016-11-28T01:21:58.574Z,52.08
2016-11-28T01:22:58.561Z,52.17
2016-11-28T01:23:58.541Z,52.17
2016-11-28T01:24:58.530Z,52.17
2016-11-28T01:25:58.197Z,52.08
2016-11-28T01:26:58.182Z,52.17
2016-11-28T01:27:58.474Z,52.08
2016-11-28T01:28:58.453Z,52.08
2016-11-28T01:29:58.438Z,52.08
2016-11-28T01:30:58.425Z,51.88
2016-11-28T01:31:58.408Z,52.17
2016-11-28T01:32:58.390Z,52.08
2016-11-28T01:33:58.373Z,51.98
2016-11-28T01:34:58.358Z,51.88
2016-11-28T01:35:58.022Z,52.08
2016-11-28T01:36:58.007Z,47.17
2016-11-28T01:37:57.986Z,48.21
2016-11-28T01:38:58.340Z,49.15
2016-11-28T01:39:58.269Z,51.35
2016-11-28T01:40:58.258Z,51.67
2016-11-28T01:41:58.242Z,51.28
2016-11-28T01:42:58.227Z,51.18
2016-11-28T01:43:58.202Z,51.11
2016-11-28T01:44:58.183Z,50.99
2016-11-28T01:45:57.856Z,51.11
2016-11-28T01:46:58.153Z,51.21
2016-11-28T01:47:57.817Z,51.21
2016-11-28T01:48:58.113Z,51.18
2016-11-28T01:49:58.103Z,51.09
2016-11-28T01:50:58.080Z,51.18
2016-11-28T01:51:58.072Z,51.37
2016-11-28T01:52:58.053Z,51.09
2016-11-28T01:53:58.036Z,51.21
2016-11-28T01:54:58.018Z,51.21
2016-11-28T01:55:58.001Z,50.99
2016-11-28T01:56:57.986Z,51.09
2016-11-28T01:57:57.962Z,50.99
2016-11-28T01:58:57.945Z,51.37
2016-11-28T01:59:57.617Z,51.09
2016-11-28T02:00:57.914Z,51.28
2016-11-28T02:01:57.902Z,51.28
2016-11-28T02:02:57.562Z,51.28
2016-11-28T02:03:57.863Z,51.21
2016-11-28T02:04:57.845Z,51.18
2016-11-28T02:05:57.833Z,51.09
2016-11-28T02:06:57.814Z,51.09
2016-11-28T02:07:57.794Z,51.28
2016-11-28T02:08:57.778Z,51.09
2016-11-28T02:09:57.448Z,51.67
2016-11-28T02:10:57.745Z,51.18
2016-11-28T02:11:57.722Z,51.21
2016-11-28T02:12:57.708Z,51.09
2016-11-28T02:13:57.693Z,50.99
2016-11-28T02:14:57.674Z,51.09
2016-11-28T02:15:57.660Z,51.11
2016-11-28T02:16:57.646Z,51.09
2016-11-28T02:17:57.624Z,51.11
2016-11-28T02:18:57.605Z,50.99
2016-11-28T02:19:57.595Z,50.99
2016-11-28T02:20:57.571Z,51.37
2016-11-28T02:21:57.561Z,51.18
2016-11-28T02:22:57.539Z,51.67
2016-11-28T02:23:57.529Z,51.18
2016-11-28T02:24:57.508Z,51.11
2016-11-28T02:25:57.494Z,51.18
2016-11-28T02:26:57.471Z,51.21
2016-11-28T02:27:57.456Z,51.18
2016-11-28T02:28:57.125Z,50.99
2016-11-28T02:29:57.424Z,50.99
2016-11-28T02:30:57.406Z,51.28
2016-11-28T02:31:57.069Z,51.18
2016-11-28T02:32:57.370Z,51.18
2016-11-28T02:33:57.354Z,51.09
2016-11-28T02:34:57.337Z,51.09
2016-11-28T02:35:57.319Z,51.11
2016-11-28T02:36:57.307Z,51.37
2016-11-28T02:37:57.282Z,51.09
2016-11-28T02:38:57.269Z,51.09
2016-11-28T02:39:57.254Z,51.18
2016-11-28T02:40:57.230Z,51.09
2016-11-28T02:41:57.215Z,51.09
2016-11-28T02:42:57.202Z,51.18
2016-11-28T02:43:57.183Z,51.18
2016-11-28T02:44:57.167Z,50.99
2016-11-28T02:45:56.836Z,51.11
2016-11-28T02:46:57.131Z,51.09
2016-11-28T02:47:57.115Z,51.09
2016-11-28T02:48:57.100Z,51.18
2016-11-28T02:49:57.079Z,51.09
2016-11-28T02:50:57.062Z,50.99
2016-11-28T02:51:56.731Z,51.18
2016-11-28T02:52:57.030Z,51.09
2016-11-28T02:53:56.701Z,51.18
2016-11-28T02:54:56.992Z,51.28
2016-11-28T02:55:56.982Z,51.18
2016-11-28T02:56:56.965Z,51.09
2016-11-28T02:57:56.941Z,51.18
2016-11-28T02:58:56.926Z,51.18
2016-11-28T02:59:56.913Z,51.37
2016-11-28T03:00:56.888Z,51.18
2016-11-28T03:01:56.881Z,51.09
2016-11-28T03:02:56.860Z,50.9
2016-11-28T03:03:56.842Z,50.99
2016-11-28T03:04:56.508Z,51.09
2016-11-28T03:05:56.806Z,50.99
2016-11-28T03:06:56.791Z,50.9
2016-11-28T03:07:56.770Z,51.37
2016-11-28T03:08:56.757Z,50.99
2016-11-28T03:09:56.737Z,51.67
2016-11-28T03:10:56.724Z,51.37
2016-11-28T03:11:56.704Z,51.86
2016-11-28T03:12:56.685Z,51.95
2016-11-28T03:13:56.353Z,51.86
2016-11-28T03:14:56.341Z,51.86
2016-11-28T03:15:56.642Z,51.57
2016-11-28T03:16:56.619Z,51.95
2016-11-28T03:17:56.597Z,51.67
2016-11-28T03:18:56.584Z,51.67
2016-11-28T03:19:56.568Z,51.47
2016-11-28T03:20:56.559Z,51.67
2016-11-28T03:21:56.530Z,51.76
2016-11-28T03:22:56.517Z,51.28
2016-11-28T03:23:56.504Z,51.57
2016-11-28T03:24:56.481Z,51.67
2016-11-28T03:25:56.466Z,51.28
2016-11-28T03:26:56.443Z,51.57
2016-11-28T03:27:56.115Z,51.57
2016-11-28T03:28:56.416Z,51.67
2016-11-28T03:29:56.403Z,51.95
2016-11-28T03:30:56.379Z,51.95
2016-11-28T03:31:56.364Z,51.95
2016-11-28T03:32:56.027Z,51.67
2016-11-28T03:33:56.324Z,51.95
2016-11-28T03:34:56.313Z,51.67
2016-11-28T03:35:56.291Z,51.76
2016-11-28T03:36:56.280Z,51.67
2016-11-28T03:37:56.257Z,51.95
2016-11-28T03:38:56.242Z,51.86
2016-11-28T03:39:56.220Z,51.67
2016-11-28T03:40:56.207Z,51.47
2016-11-28T03:41:56.194Z,51.47
2016-11-28T03:42:56.171Z,51.57
2016-11-28T03:43:56.162Z,51.57
2016-11-28T03:44:56.134Z,51.37
2016-11-28T03:45:55.803Z,51.28
2016-11-28T03:46:56.102Z,51.37
2016-11-28T03:47:56.082Z,51.76
2016-11-28T03:48:56.077Z,51.67
2016-11-28T03:49:56.052Z,51.47
2016-11-28T03:50:56.033Z,51.67
2016-11-28T03:51:56.020Z,51.67
2016-11-28T03:52:55.999Z,51.86
2016-11-28T03:53:55.989Z,51.57
2016-11-28T03:54:55.966Z,51.47
2016-11-28T03:55:55.949Z,51.76
2016-11-28T03:56:55.932Z,51.57
2016-11-28T03:57:55.922Z,51.76
2016-11-28T03:58:55.895Z,51.67
2016-11-28T03:59:55.876Z,51.47
2016-11-28T04:00:55.863Z,51.76
2016-11-28T04:01:55.845Z,51.76
2016-11-28T04:02:55.878Z,51.67
2016-11-28T04:03:55.809Z,51.76
2016-11-28T04:04:55.792Z,51.67
2016-11-28T04:05:55.773Z,51.76
2016-11-28T04:06:55.760Z,51.76
2016-11-28T04:07:55.742Z,51.76
2016-11-28T04:08:55.725Z,51.86
2016-11-28T04:09:55.706Z,51.76
2016-11-28T04:10:55.686Z,51.67
2016-11-28T04:11:55.673Z,51.76
2016-11-28T04:12:55.658Z,51.37
2016-11-28T04:13:55.641Z,51.67
2016-11-28T04:14:55.622Z,51.76
2016-11-28T04:15:55.604Z,51.67
2016-11-28T04:16:55.593Z,51.76
2016-11-28T04:17:55.254Z,51.86
2016-11-28T04:18:55.233Z,51.57
2016-11-28T04:19:55.533Z,51.57
2016-11-28T04:20:55.517Z,51.57
2016-11-28T04:21:55.499Z,51.47
2016-11-28T04:22:55.490Z,51.86
2016-11-28T04:23:55.462Z,51.76
2016-11-28T04:24:55.447Z,51.76
2016-11-28T04:25:55.429Z,51.67
2016-11-28T04:26:55.417Z,51.57
2016-11-28T04:27:55.397Z,51.67
2016-11-28T04:28:55.066Z,51.67
2016-11-28T04:29:55.361Z,51.76
2016-11-28T04:30:55.345Z,51.67
2016-11-28T04:31:55.326Z,51.76
2016-11-28T04:32:55.313Z,51.76
2016-11-28T04:33:55.294Z,51.76
2016-11-28T04:34:55.277Z,51.67
2016-11-28T04:35:55.256Z,51.67
2016-11-28T04:36:55.242Z,51.76
2016-11-28T04:37:55.225Z,51.76
2016-11-28T04:38:55.210Z,51.76
2016-11-28T04:39:54.878Z,51.76
2016-11-28T04:40:55.176Z,51.76
2016-11-28T04:41:55.154Z,51.57
2016-11-28T04:42:54.827Z,51.86
2016-11-28T04:43:55.116Z,51.76
2016-11-28T04:44:55.102Z,51.95
2016-11-28T04:45:55.091Z,51.76
2016-11-28T04:46:55.072Z,51.57
2016-11-28T04:47:55.058Z,51.76
2016-11-28T04:48:55.031Z,51.95
2016-11-28T04:49:55.014Z,51.86
2016-11-28T04:50:55.001Z,51.95
2016-11-28T04:51:54.979Z,51.76
2016-11-28T04:52:54.966Z,51.76
2016-11-28T04:53:54.947Z,51.67
2016-11-28T04:54:54.927Z,51.76
2016-11-28T04:55:54.911Z,51.95
2016-11-28T04:56:54.900Z,51.95
2016-11-28T04:57:54.874Z,51.76
2016-11-28T04:58:54.543Z,51.67
2016-11-28T04:59:54.847Z,51.76
2016-11-28T05:00:54.826Z,51.95
2016-11-28T05:01:54.816Z,51.76
2016-11-28T05:02:54.795Z,51.95
2016-11-28T05:03:54.776Z,51.57
2016-11-28T05:04:54.761Z,51.86
2016-11-28T05:05:54.736Z,51.47
2016-11-28T05:06:54.725Z,51.67
2016-11-28T05:07:54.711Z,51.76
2016-11-28T05:08:54.686Z,50.9
2016-11-28T05:09:54.675Z,50.99
2016-11-28T05:10:54.649Z,50.63
2016-11-28T05:11:54.637Z,50.15
2016-11-28T05:12:54.617Z,50.44
2016-11-28T05:13:54.286Z,50.54
2016-11-28T05:14:54.581Z,50.37
2016-11-28T05:15:54.571Z,49.79
2016-11-28T05:16:54.548Z,49.51
2016-11-28T05:17:54.533Z,49.79
2016-11-28T05:18:54.518Z,49.41
2016-11-28T05:19:54.187Z,49.12
2016-11-28T05:20:54.486Z,49.43
2016-11-28T05:21:54.464Z,49.15
2016-11-28T05:22:54.445Z,49.24
2016-11-28T05:23:54.112Z,49.15
2016-11-28T05:24:54.412Z,49.05
2016-11-28T05:25:54.660Z,48.85
2016-11-28T05:26:54.378Z,48.76
2016-11-28T05:27:54.367Z,48.85
2016-11-28T05:28:54.032Z,48.66
2016-11-28T05:29:54.325Z,48.88
2016-11-28T05:30:54.311Z,48.76
2016-11-28T05:31:54.292Z,48.85
2016-11-28T05:32:54.291Z,48.79
2016-11-28T05:33:54.260Z,48.79
2016-11-28T05:34:54.245Z,48.79
2016-11-28T05:35:54.227Z,48.88
2016-11-28T05:36:54.210Z,49.07
2016-11-28T05:37:54.196Z,49.17
2016-11-28T05:38:54.175Z,49.07
2016-11-28T05:39:54.157Z,49.07
2016-11-28T05:40:54.140Z,49.05
2016-11-28T05:41:53.806Z,49.33
2016-11-28T05:42:54.108Z,49.15
2016-11-28T05:43:54.097Z,48.95
2016-11-28T05:44:54.077Z,49.17
2016-11-28T05:45:54.059Z,49.17
2016-11-28T05:46:54.048Z,49.36
2016-11-28T05:47:54.025Z,49.33
2016-11-28T05:48:54.010Z,49.36
2016-11-28T05:49:53.988Z,49.36
2016-11-28T05:50:53.977Z,49.36
2016-11-28T05:51:53.959Z,49.07
2016-11-28T05:52:53.947Z,49.46
2016-11-28T05:53:53.923Z,49.17
2016-11-28T05:54:53.904Z,49.43
2016-11-28T05:55:53.573Z,49.07
2016-11-28T05:56:53.876Z,49.36
2016-11-28T05:57:53.857Z,49.07
2016-11-28T05:58:53.842Z,48.97
2016-11-28T05:59:53.822Z,49.27
2016-11-28T06:00:53.805Z,49.17
2016-11-28T06:01:53.790Z,49.33
2016-11-28T06:02:53.471Z,49.07
2016-11-28T06:03:53.440Z,49.17
2016-11-28T06:04:53.741Z,46.36
2016-11-28T06:05:53.409Z,43.01
2016-11-28T06:06:53.710Z,42.03
2016-11-28T06:07:53.690Z,40.3
2016-11-28T06:08:53.674Z,39.24
2016-11-28T06:09:53.665Z,38.35
2016-11-28T06:10:53.639Z,38.26
2016-11-28T06:11:53.624Z,38.84
2016-11-28T06:12:53.607Z,39.7
2016-11-28T06:13:53.592Z,41.62
2016-11-28T06:14:53.570Z,41.72
2016-11-28T06:15:53.560Z,43.76
2016-11-28T06:16:53.540Z,42.6
2016-11-28T06:17:53.527Z,42.89
2016-11-28T06:18:53.506Z,44.24
2016-11-28T06:19:53.493Z,44.14
2016-11-28T06:20:53.474Z,43.47
2016-11-28T06:21:53.456Z,44.14
2016-11-28T06:22:53.440Z,44.45
2016-11-28T06:23:53.420Z,44.65
2016-11-28T06:24:53.403Z,44.91
2016-11-28T06:25:53.390Z,44.93
2016-11-28T06:26:53.372Z,45.22
2016-11-28T06:27:53.362Z,45.42
2016-11-28T06:28:53.340Z,45.61
2016-11-28T06:29:53.329Z,45.8
2016-11-28T06:30:53.308Z,45.8
2016-11-28T06:31:53.290Z,45.61
2016-11-28T06:32:53.271Z,45.99
2016-11-28T06:33:53.258Z,45.99
2016-11-28T06:34:52.927Z,45.61
2016-11-28T06:35:53.219Z,45.61
2016-11-28T06:36:52.892Z,45.51
2016-11-28T06:37:53.197Z,45.61
2016-11-28T06:38:52.862Z,45.51
2016-11-28T06:39:53.157Z,46.47
2016-11-28T06:40:53.142Z,46.28
2016-11-28T06:41:53.124Z,46.28
2016-11-28T06:42:53.114Z,46.28
2016-11-28T06:43:53.092Z,46.28
2016-11-28T06:44:53.079Z,46.19
2016-11-28T06:45:53.059Z,46.09
2016-11-28T06:46:53.043Z,46.19
2016-11-28T06:47:53.032Z,46.28
2016-11-28T06:48:53.008Z,46.38
2016-11-28T06:49:53.000Z,46.19
2016-11-28T06:50:52.978Z,46.19
2016-11-28T06:51:52.993Z,46.19
2016-11-28T06:52:52.941Z,46.19
2016-11-28T06:53:52.611Z,46.19
2016-11-28T06:54:52.911Z,46.19
2016-11-28T06:55:52.900Z,46.38
2016-11-28T06:56:52.877Z,46.09
2016-11-28T06:57:52.859Z,45.99
2016-11-28T06:58:52.845Z,45.99
2016-11-28T06:59:52.826Z,46.09
2016-11-28T07:00:52.498Z,46.01
2016-11-28T07:01:52.799Z,46.09
2016-11-28T07:02:52.780Z,46.11
2016-11-28T07:03:52.761Z,45.99
2016-11-28T07:04:52.748Z,45.99
2016-11-28T07:05:52.732Z,46.19
2016-11-28T07:06:52.715Z,46.19
2016-11-28T07:07:52.698Z,46.28
2016-11-28T07:08:52.682Z,46.4
2016-11-28T07:09:52.675Z,46.4
2016-11-28T07:10:52.649Z,46.19
2016-11-28T07:11:52.633Z,46.31
2016-11-28T07:12:52.612Z,46.38
2016-11-28T07:13:52.597Z,46.38
2016-11-28T07:14:52.276Z,46.28
2016-11-28T07:15:52.571Z,46.31
2016-11-28T07:16:52.553Z,46.21
2016-11-28T07:17:52.541Z,46.31
2016-11-28T07:18:52.517Z,46.5
2016-11-28T07:19:52.502Z,46.28
2016-11-28T07:20:52.489Z,46.28
2016-11-28T07:21:52.470Z,46.31
2016-11-28T07:22:52.454Z,46.4
2016-11-28T07:23:52.433Z,46.19
2016-11-28T07:24:52.421Z,46.31
2016-11-28T07:25:52.401Z,46.21
2016-11-28T07:26:52.392Z,46.5
2016-11-28T07:27:52.369Z,46.31
2016-11-28T07:28:52.355Z,46.59
2016-11-28T07:29:52.022Z,46.31
2016-11-28T07:30:52.008Z,46.31
2016-11-28T07:31:52.309Z,46.4
2016-11-28T07:32:51.974Z,46.5
2016-11-28T07:33:52.273Z,46.4
2016-11-28T07:34:52.256Z,46.11
2016-11-28T07:35:52.238Z,46.11
2016-11-28T07:36:52.225Z,46.31
2016-11-28T07:37:52.208Z,46.5
2016-11-28T07:38:52.190Z,46.31
2016-11-28T07:39:52.179Z,46.4
2016-11-28T07:40:52.159Z,46.21
2016-11-28T07:41:52.143Z,46.59
2016-11-28T07:42:52.128Z,46.11
2016-11-28T07:43:51.797Z,46.31
2016-11-28T07:44:52.097Z,46.4
2016-11-28T07:45:52.076Z,46.31
2016-11-28T07:46:52.063Z,46.31
2016-11-28T07:47:52.044Z,46.01
2016-11-28T07:48:52.030Z,46.21
2016-11-28T07:49:52.015Z,46.31
2016-11-28T07:50:51.994Z,46.4
2016-11-28T07:51:51.977Z,46.21
2016-11-28T07:52:51.649Z,46.11
2016-11-28T07:53:51.950Z,46.4
2016-11-28T07:54:51.927Z,46.21
2016-11-28T07:55:51.920Z,46.5
2016-11-28T07:56:51.899Z,46.69
2016-11-28T07:57:51.883Z,46.31
2016-11-28T07:58:51.866Z,46.21
2016-11-28T07:59:51.847Z,46.4
2016-11-28T08:00:51.852Z,46.5
2016-11-28T08:01:51.829Z,46.31
2016-11-28T08:02:51.799Z,46.4
2016-11-28T08:03:51.785Z,46.5
2016-11-28T08:04:51.767Z,46.4
2016-11-28T08:05:51.756Z,46.21
2016-11-28T08:06:51.424Z,46.4
2016-11-28T08:07:51.723Z,46.5
2016-11-28T08:08:51.701Z,46.21
2016-11-28T08:09:51.685Z,46.31
2016-11-28T08:10:51.674Z,46.5
2016-11-28T08:11:51.658Z,46.31
2016-11-28T08:12:51.644Z,46.4
2016-11-28T08:13:51.626Z,46.4
2016-11-28T08:14:51.605Z,46.31
2016-11-28T08:15:51.592Z,46.31
2016-11-28T08:16:51.580Z,46.31
2016-11-28T08:17:51.560Z,46.21
2016-11-28T08:18:51.542Z,46.5
2016-11-28T08:19:51.525Z,46.4
2016-11-28T08:20:51.512Z,46.4
2016-11-28T08:21:51.497Z,46.4
2016-11-28T08:22:51.478Z,46.11
2016-11-28T08:23:51.460Z,46.4
2016-11-28T08:24:51.447Z,46.31
2016-11-28T08:25:51.432Z,46.5
2016-11-28T08:26:51.415Z,46.31
2016-11-28T08:27:51.084Z,46.21
2016-11-28T08:28:51.382Z,46.4
2016-11-28T08:29:51.366Z,46.4
2016-11-28T08:30:51.350Z,46.21
2016-11-28T08:31:51.336Z,46.21
2016-11-28T08:32:51.322Z,46.21
2016-11-28T08:33:51.300Z,46.21
2016-11-28T08:34:51.287Z,46.31
2016-11-28T08:35:51.270Z,46.59
2016-11-28T08:36:51.261Z,46.31
2016-11-28T08:37:50.919Z,46.4
2016-11-28T08:38:50.904Z,46.31
2016-11-28T08:39:50.895Z,46.31
2016-11-28T08:40:50.876Z,46.11
2016-11-28T08:41:51.174Z,46.11
2016-11-28T08:42:51.159Z,46.11
2016-11-28T08:43:51.147Z,46.62
2016-11-28T08:44:50.810Z,46.31
2016-11-28T08:45:51.109Z,46.4
2016-11-28T08:46:51.098Z,46.4
2016-11-28T08:47:51.079Z,46.4
2016-11-28T08:48:51.060Z,46.4
2016-11-28T08:49:50.732Z,45.94
2016-11-28T08:50:51.029Z,46.21
2016-11-28T08:51:51.008Z,46.42
2016-11-28T08:52:50.997Z,46.21
2016-11-28T08:53:50.981Z,46.14
2016-11-28T08:54:50.960Z,46.52
2016-11-28T08:55:50.951Z,41.88
2016-11-28T08:56:50.931Z,40.01
2016-11-28T08:57:50.918Z,41.22
2016-11-28T08:58:50.901Z,42.77
2016-11-28T08:59:50.886Z,44.7
2016-11-28T09:00:50.871Z,43.28
2016-11-28T09:01:50.852Z,40.88
2016-11-28T09:02:50.516Z,40.3
2016-11-28T09:03:50.820Z,41.26
2016-11-28T09:04:50.801Z,41.16
2016-11-28T09:05:50.786Z,43.28
2016-11-28T09:06:50.769Z,43.57
2016-11-28T09:07:50.754Z,42.91
2016-11-28T09:08:50.736Z,43.88
2016-11-28T09:09:50.725Z,44.07
2016-11-28T09:10:50.706Z,43.78
2016-11-28T09:11:50.691Z,44.17
2016-11-28T09:12:50.673Z,44.28
2016-11-28T09:13:50.655Z,44.19
2016-11-28T09:14:50.635Z,44.48
2016-11-28T09:15:50.649Z,44.48
2016-11-28T09:16:50.608Z,44.48
2016-11-28T09:17:50.590Z,44.38
2016-11-28T09:18:50.571Z,44.57
2016-11-28T09:19:50.556Z,44.48
2016-11-28T09:20:50.545Z,44.57
2016-11-28T09:21:50.523Z,44.57
2016-11-28T09:22:50.509Z,44.76
2016-11-28T09:23:50.491Z,44.57
2016-11-28T09:24:50.163Z,44.86
2016-11-28T09:25:50.462Z,44.76
2016-11-28T09:26:50.450Z,44.76
2016-11-28T09:27:50.432Z,45.05
2016-11-28T09:28:50.410Z,45.05
2016-11-28T09:29:50.397Z,44.86
2016-11-28T09:30:50.060Z,44.86
2016-11-28T09:31:50.360Z,44.67
2016-11-28T09:32:50.030Z,44.86
2016-11-28T09:33:50.330Z,44.86
2016-11-28T09:34:50.312Z,45.05
2016-11-28T09:35:50.299Z,45.05
2016-11-28T09:36:50.279Z,45.05
2016-11-28T09:37:50.270Z,44.96
2016-11-28T09:38:50.245Z,45.34
2016-11-28T09:39:50.231Z,45.53
2016-11-28T09:40:50.217Z,45.25
2016-11-28T09:41:50.204Z,45.34
2016-11-28T09:42:50.182Z,45.25
2016-11-28T09:43:50.168Z,44.96
2016-11-28T09:44:50.151Z,44.96
2016-11-28T09:45:49.822Z,45.15
2016-11-28T09:46:50.119Z,44.98
2016-11-28T09:47:50.103Z,45.07
2016-11-28T09:48:50.091Z,44.89
2016-11-28T09:49:50.063Z,45.27
2016-11-28T09:50:50.054Z,45.34
2016-11-28T09:51:50.040Z,45.17
2016-11-28T09:52:50.029Z,45.25
2016-11-28T09:53:49.692Z,45.17
2016-11-28T09:54:50.005Z,45.25
2016-11-28T09:55:49.978Z,45.25
2016-11-28T09:56:49.958Z,45.25
2016-11-28T09:57:49.939Z,45.44
2016-11-28T09:58:49.922Z,45.34
2016-11-28T09:59:49.907Z,45.34
2016-11-28T10:00:49.894Z,45.44
2016-11-28T10:01:49.883Z,45.34
2016-11-28T10:02:49.859Z,45.25
2016-11-28T10:03:49.842Z,45.25
2016-11-28T10:04:49.829Z,45.34
2016-11-28T10:05:49.814Z,45.15
2016-11-28T10:06:49.806Z,45.25
2016-11-28T10:07:49.786Z,44.96
2016-11-28T10:08:49.762Z,44.96
2016-11-28T10:09:49.431Z,44.96
2016-11-28T10:10:49.732Z,45.05
2016-11-28T10:11:49.400Z,44.96
2016-11-28T10:12:49.701Z,45.05
2016-11-28T10:13:49.685Z,45.05
2016-11-28T10:14:49.676Z,45.25
2016-11-28T10:15:49.651Z,45.25
2016-11-28T10:16:49.636Z,45.53
2016-11-28T10:17:49.625Z,45.53
2016-11-28T10:18:49.599Z,45.83
2016-11-28T10:19:49.589Z,45.65
2016-11-28T10:20:49.571Z,46.52
2016-11-28T10:21:49.557Z,46.21
2016-11-28T10:22:49.226Z,46.23
2016-11-28T10:23:49.205Z,45.94
2016-11-28T10:24:49.507Z,46.01
2016-11-28T10:25:49.493Z,46.42
2016-11-28T10:26:49.473Z,46.91
2016-11-28T10:27:49.458Z,47.29
2016-11-28T10:28:49.438Z,46.91
2016-11-28T10:29:49.427Z,47.1
2016-11-28T10:30:49.410Z,47.1
2016-11-28T10:31:49.395Z,46.91
2016-11-28T10:32:49.376Z,46.81
2016-11-28T10:33:49.368Z,47.39
2016-11-28T10:34:49.348Z,47.1
2016-11-28T10:35:49.332Z,47.19
2016-11-28T10:36:49.311Z,47.49
2016-11-28T10:37:48.989Z,47.29
2016-11-28T10:38:48.970Z,47.67
2016-11-28T10:39:49.265Z,47.58
2016-11-28T10:40:49.254Z,47.97
2016-11-28T10:41:48.915Z,47.97
2016-11-28T10:42:49.218Z,47.97
2016-11-28T10:43:49.205Z,48.06
2016-11-28T10:44:50.325Z,48.54
2016-11-28T10:45:49.175Z,47.49
2016-11-28T10:46:49.157Z,48.64
2016-11-28T10:47:49.134Z,47.58
2016-11-28T10:48:49.122Z,47.77
2016-11-28T10:49:49.113Z,48.64
2016-11-28T10:50:49.093Z,48.54
2016-11-28T10:51:49.077Z,48.64
2016-11-28T10:52:49.062Z,47.87
2016-11-28T10:53:49.043Z,47.29
2016-11-28T10:54:48.715Z,47.39
2016-11-28T10:55:49.016Z,45.36
2016-11-28T10:56:49.011Z,42.09
2016-11-28T10:57:48.669Z,37.32
2016-11-28T10:58:48.966Z,37.8
2016-11-28T10:59:48.941Z,39.2
2016-11-28T11:00:48.935Z,40.54
2016-11-28T11:01:48.654Z,43.6
2016-11-28T11:02:48.903Z,44.13
2016-11-28T11:03:48.570Z,44.08
2016-11-28T11:04:48.873Z,43.43
2016-11-28T11:05:48.854Z,42.68
2016-11-28T11:06:48.833Z,42.6
2016-11-28T11:07:48.819Z,42.24
2016-11-28T11:08:48.806Z,42.53
2016-11-28T11:09:48.787Z,43.01
2016-11-28T11:10:48.765Z,42.65
2016-11-28T11:11:48.752Z,42.65
2016-11-28T11:12:48.743Z,42.55
2016-11-28T11:13:48.720Z,42.93
2016-11-28T11:14:48.714Z,42.86
2016-11-28T11:15:48.690Z,43.05
2016-11-28T11:16:48.358Z,43.34
2016-11-28T11:17:48.340Z,42.96
2016-11-28T11:18:48.640Z,42.96
2016-11-28T11:19:48.627Z,43.44
2016-11-28T11:20:48.604Z,43.24
2016-11-28T11:21:48.590Z,43.34
2016-11-28T11:22:48.576Z,43.24
2016-11-28T11:23:48.559Z,43.34
2016-11-28T11:24:48.544Z,43.37
2016-11-28T11:25:48.529Z,43.46
2016-11-28T11:26:48.510Z,43.44
2016-11-28T11:27:48.182Z,43.82
2016-11-28T11:28:48.475Z,41.82
2016-11-28T11:29:48.460Z,42.76
2016-11-28T11:30:48.449Z,43.34
2016-11-28T11:31:48.115Z,44.02
2016-11-28T11:32:48.416Z,44.02
2016-11-28T11:33:48.088Z,44.21
2016-11-28T11:34:48.381Z,44.02
2016-11-28T11:35:48.367Z,43.85
2016-11-28T11:36:48.350Z,43.85
2016-11-28T11:37:48.331Z,44.13
2016-11-28T11:38:48.325Z,44.04
2016-11-28T11:39:48.302Z,44.23
2016-11-28T11:40:47.967Z,44.13
2016-11-28T11:41:48.267Z,44.13
2016-11-28T11:42:48.262Z,44.13
2016-11-28T11:43:48.242Z,44.04
2016-11-28T11:44:48.237Z,44.13
2016-11-28T11:45:48.207Z,44.23
2016-11-28T11:46:48.194Z,43.85
2016-11-28T11:47:48.177Z,44.04
2016-11-28T11:48:48.163Z,43.94
2016-11-28T11:49:48.148Z,44.04
2016-11-28T11:50:48.123Z,43.94
2016-11-28T11:51:48.113Z,44.23
2016-11-28T11:52:47.777Z,44.23
2016-11-28T11:53:47.768Z,44.13
2016-11-28T11:54:48.092Z,44.32
2016-11-28T11:55:48.049Z,44.23
2016-11-28T11:56:48.041Z,44.32
2016-11-28T11:57:48.019Z,44.23
2016-11-28T11:58:48.000Z,44.04
2016-11-28T11:59:47.989Z,44.04
2016-11-28T12:00:47.666Z,44.04
2016-11-28T12:01:47.954Z,44.04
2016-11-28T12:02:47.941Z,44.04
2016-11-28T12:03:47.920Z,44.23
2016-11-28T12:04:47.903Z,44.32
2016-11-28T12:05:47.893Z,44.42
2016-11-28T12:06:47.882Z,44.13
2016-11-28T12:07:47.859Z,44.13
2016-11-28T12:08:47.850Z,44.52
2016-11-28T12:09:47.831Z,44.42
2016-11-28T12:10:47.809Z,44.32
2016-11-28T12:11:47.798Z,44.9
2016-11-28T12:12:47.779Z,44.81
2016-11-28T12:13:47.764Z,44.71
2016-11-28T12:14:47.747Z,44.81
2016-11-28T12:15:47.733Z,44.49
2016-11-28T12:16:47.716Z,44.81
2016-11-28T12:17:47.697Z,44.79
2016-11-28T12:18:47.683Z,45
2016-11-28T12:19:47.675Z,44.62
2016-11-28T12:20:47.655Z,44.71
2016-11-28T12:21:47.639Z,44.62
2016-11-28T12:22:47.623Z,44.71
2016-11-28T12:23:47.611Z,44.9
2016-11-28T12:24:47.585Z,45.17
2016-11-28T12:25:47.580Z,45.17
2016-11-28T12:26:47.564Z,44.98
2016-11-28T12:27:47.547Z,45.07
2016-11-28T12:28:47.208Z,44.98
2016-11-28T12:29:47.513Z,44.98
2016-11-28T12:30:47.178Z,44.98
2016-11-28T12:31:47.487Z,45.27
2016-11-28T12:32:47.463Z,45.27
2016-11-28T12:33:47.448Z,45.27
2016-11-28T12:34:47.441Z,45.27
2016-11-28T12:35:47.406Z,45.07
2016-11-28T12:36:47.405Z,45.17
2016-11-28T12:37:47.389Z,45.17
2016-11-28T12:38:47.366Z,45.17
2016-11-28T12:39:47.351Z,45.36
2016-11-28T12:40:47.334Z,45.56
2016-11-28T12:41:47.007Z,45.36
2016-11-28T12:42:47.304Z,45.17
2016-11-28T12:43:47.288Z,45.46
2016-11-28T12:44:47.265Z,45.46
2016-11-28T12:45:47.258Z,45.46
2016-11-28T12:46:47.241Z,45.07
2016-11-28T12:47:47.228Z,45.56
2016-11-28T12:48:47.212Z,45.17
2016-11-28T12:49:47.195Z,45.46
2016-11-28T12:50:47.178Z,45.46
2016-11-28T12:51:47.216Z,45.65
2016-11-28T12:52:47.150Z,45.75
2016-11-28T12:53:47.135Z,46.14
2016-11-28T12:54:47.143Z,45.56